Time;durP1;ratioP1;P1;durP2;ratioP2;P2;SDS_P1;SDS_P2;PMS_P1;PMS_P2;Temp;Humidity;BMP_temperature;BMP_pressure;BME280_temperature;BME280_humidity;BME280_pressure;Samples;Min_cycle;Max_cycle;Signal;HPM_P1;HPM_P2
2022/01/20 00:00:53;;;;;;;21.35;2.30;;;3.80;99.90;;;;;;4857052;29;20045;-84
2022/01/20 00:03:23;;;;;;;15.88;2.10;;;3.80;99.90;;;;;;4856020;29;20093;-84
2022/01/20 00:27:56;;;;;;;23.58;2.15;;;3.90;99.90;;;;;;4857026;29;20529;-84
2022/01/20 00:33:01;;;;;;;25.83;2.67;;;3.60;99.90;;;;;;4855676;29;20135;-84
2022/01/20 00:35:31;;;;;;;25.27;2.28;;;3.60;99.90;;;;;;4856428;29;20084;-83
2022/01/20 00:37:57;;;;;;;20.48;2.13;;;3.60;99.90;;;;;;4856024;29;20489;-83
2022/01/20 00:40:24;;;;;;;24.23;2.20;;;3.60;99.90;;;;;;4855699;29;20060;-84
2022/01/20 00:42:50;;;;;;;19.80;2.00;;;3.60;99.90;;;;;;4856297;29;20131;-83
2022/01/20 00:45:16;;;;;;;19.75;2.70;;;3.60;99.90;;;;;;4856409;29;20545;-84
2022/01/20 00:47:42;;;;;;;29.38;2.50;;;3.70;99.90;;;;;;4855367;29;20049;-83
2022/01/20 00:50:10;;;;;;;22.85;2.55;;;3.70;99.90;;;;;;4856425;29;20528;-84
2022/01/20 00:52:36;;;;;;;24.58;2.92;;;3.70;99.90;;;;;;4856860;29;20409;-84
2022/01/20 00:55:04;;;;;;;24.20;3.05;;;3.70;99.90;;;;;;4855639;29;20133;-83
2022/01/20 00:57:30;;;;;;;23.60;2.90;;;3.80;99.90;;;;;;4856717;29;20061;-83
2022/01/20 00:59:56;;;;;;;21.52;2.53;;;3.80;99.90;;;;;;4856532;29;20061;-83
2022/01/20 01:02:22;;;;;;;29.88;2.90;;;3.90;99.90;;;;;;4855489;29;20509;-83
2022/01/20 01:04:48;;;;;;;19.77;3.75;;;3.90;99.90;;;;;;4856806;29;20040;-83
2022/01/20 01:07:44;;;;;;;11.82;1.48;;;4.00;99.90;;;;;;4855866;29;20052;-84
2022/01/20 01:10:12;;;;;;;7.30;0.95;;;4.00;99.90;;;;;;4845125;29;20053;-84
2022/01/20 01:12:48;;;;;;;7.82;1.10;;;3.90;99.90;;;;;;4859306;29;20053;-84
2022/01/20 01:15:21;;;;;;;6.50;0.77;;;3.70;99.90;;;;;;4859329;29;20081;-84
2022/01/20 01:20:44;;;;;;;10.73;1.50;;;3.50;99.90;;;;;;4876355;29;20166;-83
2022/01/20 01:23:10;;;;;;;15.13;1.60;;;3.40;99.90;;;;;;4859110;29;20045;-83
2022/01/20 01:25:36;;;;;;;11.73;1.95;;;3.40;99.90;;;;;;4859772;29;20052;-83
2022/01/20 01:28:02;;;;;;;19.10;1.42;;;3.10;99.90;;;;;;4860037;29;20592;-83
2022/01/20 01:32:55;;;;;;;14.05;1.40;;;3.60;99.90;;;;;;4858526;29;20413;-84
2022/01/20 01:35:23;;;;;;;17.17;1.63;;;3.30;99.90;;;;;;4857963;29;20045;-83
2022/01/20 01:40:20;;;;;;;17.67;1.77;;;3.40;99.90;;;;;;4859004;29;20060;-83
2022/01/20 01:42:49;;;;;;;12.90;1.45;;;3.40;99.90;;;;;;4857950;29;20045;-84
2022/01/20 01:45:20;;;;;;;13.98;1.50;;;3.40;99.90;;;;;;4858926;29;20065;-84
2022/01/20 01:47:47;;;;;;;14.98;1.30;;;3.40;99.90;;;;;;4857933;29;20064;-84
2022/01/20 01:50:13;;;;;;;18.13;1.38;;;3.40;99.90;;;;;;4858153;29;20071;-84
2022/01/20 01:52:39;;;;;;;9.85;1.58;;;3.40;99.90;;;;;;4858427;29;20045;-83
2022/01/20 01:55:05;;;;;;;23.02;2.03;;;3.50;99.90;;;;;;4859475;29;20064;-84
2022/01/20 01:57:31;;;;;;;20.70;2.67;;;3.50;99.90;;;;;;4857963;29;20053;-83
2022/01/20 01:59:57;;;;;;;18.77;2.70;;;3.60;99.90;;;;;;4858443;29;20059;-83
2022/01/20 02:02:23;;;;;;;14.95;2.17;;;3.60;99.90;;;;;;4875585;29;20057;-84
2022/01/20 02:04:49;;;;;;;18.50;3.15;;;3.60;99.90;;;;;;4857762;29;20112;-83
2022/01/20 02:20:52;;;;;;;17.88;2.45;;;4.00;99.90;;;;;;4858355;29;20164;-83
2022/01/20 02:23:19;;;;;;;16.40;2.15;;;4.10;99.90;;;;;;4857531;29;20140;-82
2022/01/20 02:25:45;;;;;;;24.90;2.17;;;3.40;99.90;;;;;;4858197;29;20126;-82
2022/01/20 02:28:12;;;;;;;22.58;3.67;;;3.30;99.90;;;;;;4858534;29;20056;-83
2022/01/20 02:30:40;;;;;;;22.23;2.63;;;3.90;99.90;;;;;;4858579;29;20049;-84
2022/01/20 02:33:09;;;;;;;20.05;2.70;;;3.10;99.90;;;;;;4857356;29;20041;-85
2022/01/20 02:35:38;;;;;;;22.83;2.33;;;3.10;99.90;;;;;;4858006;29;20068;-84
2022/01/20 02:38:16;;;;;;;21.23;3.38;;;3.20;99.90;;;;;;4858409;29;20057;-85
2022/01/20 02:45:54;;;;;;;24.55;3.25;;;3.30;99.90;;;;;;4857351;29;20073;-84
2022/01/20 02:48:21;;;;;;;26.92;4.38;;;3.40;99.90;;;;;;4857573;29;20140;-84
2022/01/20 02:50:47;;;;;;;27.83;4.18;;;3.50;99.90;;;;;;4857254;29;20055;-84
2022/01/20 02:53:12;;;;;;;26.63;3.75;;;3.50;99.90;;;;;;4857309;29;20048;-84
2022/01/20 02:55:38;;;;;;;27.90;3.92;;;3.60;99.90;;;;;;4858122;29;20071;-83
2022/01/20 02:58:05;;;;;;;29.50;4.00;;;3.60;99.90;;;;;;4857968;29;20394;-83
2022/01/20 03:00:33;;;;;;;26.13;4.45;;;3.70;99.90;;;;;;4857176;29;20057;-83
2022/01/20 03:03:00;;;;;;;24.23;4.88;;;3.80;99.90;;;;;;4857603;29;20465;-82
2022/01/20 03:05:26;;;;;;;21.73;3.67;;;3.80;99.90;;;;;;4842145;29;20574;-83
2022/01/20 03:07:52;;;;;;;28.83;3.63;;;3.80;99.90;;;;;;4856796;29;20070;-83
2022/01/20 03:10:18;;;;;;;26.75;3.65;;;3.70;99.90;;;;;;4857687;29;20051;-83
2022/01/20 03:12:44;;;;;;;22.38;3.45;;;3.60;99.90;;;;;;4857820;29;20045;-84
2022/01/20 03:15:10;;;;;;;19.55;3.30;;;3.50;99.90;;;;;;4857567;29;20060;-84
2022/01/20 03:17:36;;;;;;;18.63;3.83;;;3.70;99.90;;;;;;4857626;29;20064;-83
2022/01/20 03:20:02;;;;;;;25.20;4.18;;;3.40;99.90;;;;;;4856928;29;20508;-83
2022/01/20 03:22:28;;;;;;;30.00;3.88;;;3.30;99.90;;;;;;4856915;29;20045;-83
2022/01/20 03:24:55;;;;;;;26.50;4.43;;;3.60;99.90;;;;;;4841990;29;20136;-83
2022/01/20 03:27:21;;;;;;;29.42;4.65;;;3.30;99.90;;;;;;4857935;29;20049;-83
2022/01/20 03:29:46;;;;;;;39.08;4.70;;;3.30;99.90;;;;;;4856976;29;20565;-83
2022/01/20 03:32:12;;;;;;;29.38;4.72;;;3.40;99.90;;;;;;4856325;29;20045;-83
2022/01/20 03:34:37;;;;;;;32.67;4.70;;;3.40;99.90;;;;;;4857352;29;20051;-83
2022/01/20 03:37:04;;;;;;;22.65;4.00;;;3.40;99.90;;;;;;4855721;29;20127;-83
2022/01/20 03:39:31;;;;;;;22.70;3.95;;;3.40;99.90;;;;;;4857309;29;20546;-84
2022/01/20 03:41:57;;;;;;;18.98;3.15;;;3.50;99.90;;;;;;4856177;29;20045;-84
2022/01/20 03:44:23;;;;;;;17.95;2.45;;;3.60;99.90;;;;;;4856805;29;20061;-83
2022/01/20 03:46:49;;;;;;;11.02;2.30;;;3.60;99.90;;;;;;4841084;29;20132;-83
2022/01/20 03:49:27;;;;;;;13.88;2.20;;;3.60;99.90;;;;;;4856332;29;20140;-82
2022/01/20 03:51:54;;;;;;;17.85;3.38;;;4.00;99.90;;;;;;4856757;29;20080;-82
2022/01/20 03:54:20;;;;;;;18.48;2.83;;;3.50;99.90;;;;;;4857349;29;20051;-82
2022/01/20 03:56:46;;;;;;;21.10;3.47;;;3.40;99.90;;;;;;4873310;29;20044;-82
2022/01/20 03:59:12;;;;;;;11.10;2.72;;;3.40;99.90;;;;;;4856920;29;20081;-82
2022/01/20 04:01:37;;;;;;;19.17;3.75;;;3.70;99.90;;;;;;4856936;29;20045;-81
2022/01/20 04:04:03;;;;;;;19.38;3.10;;;3.40;99.90;;;;;;4856624;29;20140;-82
2022/01/20 04:06:29;;;;;;;15.52;2.97;;;3.40;99.90;;;;;;4856365;29;20041;-82
2022/01/20 04:08:55;;;;;;;13.77;1.95;;;3.40;99.90;;;;;;4857226;29;20063;-83
2022/01/20 04:11:23;;;;;;;18.25;2.95;;;4.10;99.90;;;;;;4855944;29;20044;-83
2022/01/20 04:13:50;;;;;;;19.38;2.90;;;3.70;99.90;;;;;;4856915;29;20494;-83
2022/01/20 04:16:20;;;;;;;19.65;2.85;;;3.50;99.90;;;;;;4840966;29;20155;-83
2022/01/20 04:18:53;;;;;;;19.20;2.72;;;3.40;99.90;;;;;;4855774;29;20087;-83
2022/01/20 04:21:22;;;;;;;17.02;2.72;;;4.10;99.90;;;;;;4856279;29;20088;-83
2022/01/20 04:23:48;;;;;;;15.98;2.85;;;3.50;99.90;;;;;;4856945;29;20624;-83
2022/01/20 04:26:14;;;;;;;18.02;2.50;;;3.50;99.90;;;;;;4872932;29;20088;-83
2022/01/20 04:28:40;;;;;;;18.13;2.35;;;3.60;99.90;;;;;;4856828;29;20044;-83
2022/01/20 04:31:06;;;;;;;12.20;2.05;;;3.70;99.90;;;;;;4856301;29;20144;-83
2022/01/20 04:33:31;;;;;;;12.25;2.28;;;3.70;99.90;;;;;;4840733;29;20434;-83
2022/01/20 04:35:57;;;;;;;19.50;2.90;;;3.70;99.90;;;;;;4840846;29;20056;-83
2022/01/20 04:38:23;;;;;;;15.80;2.33;;;3.90;99.90;;;;;;4854974;29;20156;-83
2022/01/20 04:40:48;;;;;;;28.48;3.92;;;3.70;99.90;;;;;;4856457;29;20075;-83
2022/01/20 04:43:14;;;;;;;16.40;2.60;;;3.70;99.90;;;;;;4857942;29;20045;-83
2022/01/20 04:45:47;;;;;;;22.73;3.85;;;3.60;99.90;;;;;;4859386;29;20113;-83
2022/01/20 04:48:21;;;;;;;;;;;3.50;99.90;;;;;;4859769;29;20414;-83
2022/01/20 04:59:06;;;;;;;16.20;2.95;;;3.10;99.90;;;;;;4859710;29;20467;-83
2022/01/20 05:01:31;;;;;;;20.42;3.22;;;2.90;99.90;;;;;;4843279;29;20049;-83
2022/01/20 05:03:58;;;;;;;25.38;2.92;;;3.00;99.90;;;;;;4859227;29;20135;-83
2022/01/20 05:06:23;;;;;;;26.15;3.28;;;2.90;99.90;;;;;;4858818;29;20426;-83
2022/01/20 05:08:51;;;;;;;16.83;3.25;;;2.90;99.90;;;;;;4844395;29;20410;-82
2022/01/20 05:11:17;;;;;;;12.90;2.22;;;3.00;99.90;;;;;;4859292;29;20041;-83
2022/01/20 05:13:43;;;;;;;18.88;2.33;;;3.00;99.90;;;;;;4858835;29;20112;-83
2022/01/20 05:16:09;;;;;;;9.25;1.92;;;3.00;99.90;;;;;;4859476;29;20043;-82
2022/01/20 05:18:35;;;;;;;10.05;1.50;;;3.00;99.90;;;;;;4859316;29;20056;-83
2022/01/20 05:21:02;;;;;;;8.25;0.95;;;2.90;99.90;;;;;;4858877;29;20052;-83
2022/01/20 05:23:27;;;;;;;8.27;1.50;;;2.80;99.90;;;;;;4859375;29;20041;-82
2022/01/20 05:25:53;;;;;;;11.13;1.60;;;3.20;99.90;;;;;;4859769;29;20386;-83
2022/01/20 05:28:19;;;;;;;9.52;1.30;;;2.60;99.90;;;;;;4858004;29;20174;-83
2022/01/20 05:30:46;;;;;;;12.45;1.95;;;2.50;99.90;;;;;;4859443;29;20064;-83
2022/01/20 05:33:11;;;;;;;7.30;1.25;;;2.40;99.90;;;;;;4859543;29;20075;-82
2022/01/20 05:35:37;;;;;;;18.17;2.25;;;2.40;99.90;;;;;;4859634;29;20103;-82
2022/01/20 05:38:03;;;;;;;11.60;1.48;;;2.40;99.90;;;;;;4877205;29;20052;-82
2022/01/20 05:40:29;;;;;;;22.85;2.72;;;2.40;99.90;;;;;;4877121;29;20135;-82
2022/01/20 05:42:57;;;;;;;21.90;2.45;;;3.00;99.90;;;;;;4877201;29;20049;-82
2022/01/20 05:45:24;;;;;;;24.83;3.00;;;3.30;99.90;;;;;;4877577;29;20048;-82
2022/01/20 05:47:59;;;;;;;19.67;3.05;;;2.30;99.90;;;;;;4877045;29;20140;-81
2022/01/20 05:50:24;;;;;;;30.02;4.05;;;2.30;99.90;;;;;;4875902;29;20048;-82
2022/01/20 05:52:50;;;;;;;25.23;3.58;;;2.30;99.90;;;;;;4860222;29;20048;-83
2022/01/20 05:55:19;;;;;;;18.27;3.28;;;2.30;99.90;;;;;;4858273;29;20139;-82
2022/01/20 05:57:46;;;;;;;28.42;3.78;;;2.40;99.90;;;;;;4842810;29;20092;-82
2022/01/20 06:00:16;;;;;;;16.75;2.50;;;2.50;99.90;;;;;;4858733;29;20053;-83
2022/01/20 06:05:26;;;;;;;22.38;2.90;;;2.70;99.90;;;;;;4858477;29;20052;-82
2022/01/20 06:07:52;;;;;;;21.77;3.00;;;2.80;99.90;;;;;;4858920;29;20037;-82
2022/01/20 06:10:18;;;;;;;18.15;3.17;;;2.90;99.90;;;;;;4857663;29;20597;-82
2022/01/20 06:12:43;;;;;;;21.77;3.28;;;2.90;99.90;;;;;;4858742;29;20067;-82
2022/01/20 06:15:13;;;;;;;26.02;3.75;;;2.90;99.90;;;;;;4843436;29;20049;-83
2022/01/20 06:17:39;;;;;;;21.95;3.55;;;3.00;99.90;;;;;;4857714;29;20057;-82
2022/01/20 06:20:05;;;;;;;20.70;3.17;;;3.00;99.90;;;;;;4842740;29;20444;-83
2022/01/20 06:22:31;;;;;;;20.83;2.63;;;3.10;99.90;;;;;;4858272;29;20060;-82
2022/01/20 06:24:57;;;;;;;14.55;2.97;;;3.50;99.90;;;;;;4857861;29;20048;-82
2022/01/20 06:27:22;;;;;;;22.60;3.10;;;3.60;99.90;;;;;;4858200;29;20048;-81
2022/01/20 06:29:48;;;;;;;17.50;3.05;;;3.30;99.90;;;;;;4858543;29;20044;-81
2022/01/20 06:32:14;;;;;;;24.42;3.40;;;3.30;99.90;;;;;;4856852;29;20258;-82
2022/01/20 06:34:42;;;;;;;26.17;4.05;;;3.30;99.90;;;;;;4843825;29;20109;-82
2022/01/20 06:37:08;;;;;;;23.23;3.53;;;3.20;99.90;;;;;;4843000;29;20060;-82
2022/01/20 06:39:34;;;;;;;23.60;3.33;;;3.00;99.90;;;;;;4857874;29;20489;-82
2022/01/20 06:41:59;;;;;;;25.63;3.78;;;2.90;99.90;;;;;;4858234;29;20150;-82
2022/01/20 06:44:25;;;;;;;26.90;3.47;;;2.70;99.90;;;;;;4874414;29;20425;-82
2022/01/20 06:46:51;;;;;;;16.58;2.97;;;2.60;99.90;;;;;;4856701;29;20383;-82
2022/01/20 06:49:18;;;;;;;26.98;3.33;;;2.50;99.90;;;;;;4857859;29;20053;-82
2022/01/20 06:51:45;;;;;;;19.23;3.03;;;2.50;99.90;;;;;;4857209;29;20059;-82
2022/01/20 06:54:11;;;;;;;17.33;3.47;;;2.40;99.90;;;;;;4858461;29;20450;-82
2022/01/20 06:56:37;;;;;;;20.73;2.83;;;2.40;99.90;;;;;;4857425;29;20049;-82
2022/01/20 06:59:03;;;;;;;18.98;2.97;;;2.40;99.90;;;;;;4857232;29;20531;-82
2022/01/20 07:01:29;;;;;;;14.07;2.53;;;2.40;99.90;;;;;;4865153;29;20457;-82
2022/01/20 07:03:54;;;;;;;15.18;3.10;;;2.40;99.90;;;;;;4875773;29;20056;-82
2022/01/20 07:06:20;;;;;;;23.88;3.08;;;2.40;99.90;;;;;;4858717;29;20060;-82
2022/01/20 07:08:46;;;;;;;13.95;2.75;;;2.40;99.90;;;;;;4875804;29;20037;-82
2022/01/20 07:11:11;;;;;;;18.15;3.22;;;2.40;99.90;;;;;;4876331;29;20120;-82
2022/01/20 07:13:37;;;;;;;19.02;3.42;;;2.50;99.90;;;;;;4869933;29;20509;-82
2022/01/20 07:16:03;;;;;;;24.30;3.78;;;2.60;99.90;;;;;;4876908;29;20052;-83
2022/01/20 07:18:29;;;;;;;26.95;3.50;;;2.60;99.90;;;;;;4875169;29;20401;-84
2022/01/20 07:20:54;;;;;;;25.52;3.55;;;2.60;99.90;;;;;;4858780;29;20052;-84
2022/01/20 07:23:20;;;;;;;22.05;3.53;;;2.70;99.90;;;;;;4875136;29;20072;-84
2022/01/20 07:25:46;;;;;;;16.35;2.22;;;2.70;99.90;;;;;;4875304;29;20044;-84
2022/01/20 07:28:12;;;;;;;20.05;2.58;;;2.80;99.90;;;;;;4875141;29;20079;-85
2022/01/20 07:30:38;;;;;;;12.00;2.40;;;2.70;99.90;;;;;;4860265;29;20599;-84
2022/01/20 07:33:05;;;;;;;12.20;2.05;;;2.70;99.90;;;;;;4859371;29;20052;-83
2022/01/20 07:35:31;;;;;;;15.35;2.42;;;2.70;99.90;;;;;;4889806;29;20132;-83
2022/01/20 07:37:57;;;;;;;19.70;3.00;;;2.60;99.90;;;;;;4869552;29;20556;-84
2022/01/20 07:40:23;;;;;;;21.50;2.60;;;2.60;99.90;;;;;;4854224;29;20139;-84
2022/01/20 07:42:48;;;;;;;14.15;2.63;;;2.50;99.90;;;;;;4881385;29;20052;-84
2022/01/20 07:45:14;;;;;;;12.38;2.15;;;2.60;99.90;;;;;;4855743;29;20497;-84
2022/01/20 07:47:40;;;;;;;10.05;1.60;;;2.60;99.90;;;;;;4858918;29;20188;-84
2022/01/20 07:50:06;;;;;;;13.35;1.63;;;2.40;99.90;;;;;;4858703;29;20127;-83
2022/01/20 07:52:32;;;;;;;15.25;2.75;;;2.20;99.90;;;;;;4874937;29;20052;-84
2022/01/20 07:54:57;;;;;;;9.98;1.60;;;2.10;99.90;;;;;;4857499;29;20088;-83
2022/01/20 07:57:23;;;;;;;10.48;2.00;;;1.90;99.90;;;;;;4868685;29;20128;-85
2022/01/20 07:59:49;;;;;;;16.80;1.73;;;2.00;99.90;;;;;;4859561;29;20044;-87
2022/01/20 08:02:16;;;;;;;12.13;2.22;;;2.10;99.90;;;;;;4873870;29;20490;-86
2022/01/20 08:04:42;;;;;;;21.77;3.45;;;3.00;99.90;;;;;;4875749;29;20037;-87
2022/01/20 08:07:08;;;;;;;21.90;2.95;;;2.20;99.90;;;;;;4875106;29;20389;-86
2022/01/20 08:09:34;;;;;;;22.20;2.40;;;2.20;99.90;;;;;;4874872;29;20093;-87
2022/01/20 08:12:00;;;;;;;23.58;3.78;;;2.30;99.90;;;;;;4875255;29;20506;-85
2022/01/20 08:14:25;;;;;;;24.75;3.95;;;2.30;99.90;;;;;;4874614;29;20049;-86
2022/01/20 08:16:51;;;;;;;19.67;2.15;;;2.20;99.90;;;;;;4858278;29;20044;-86
2022/01/20 08:19:17;;;;;;;23.42;3.08;;;2.20;99.90;;;;;;4875272;29;20068;-87
2022/01/20 08:21:43;;;;;;;24.42;3.35;;;2.20;99.90;;;;;;4874268;29;20059;-86
2022/01/20 08:24:08;;;;;;;20.42;3.15;;;2.20;99.90;;;;;;4874811;29;20100;-85
2022/01/20 08:26:34;;;;;;;19.83;2.78;;;2.30;99.90;;;;;;4874583;29;20115;-85
2022/01/20 08:28:59;;;;;;;21.52;3.28;;;2.40;99.90;;;;;;4875412;29;20063;-85
2022/01/20 08:31:25;;;;;;;17.02;2.75;;;2.80;99.90;;;;;;4874517;29;20540;-85
2022/01/20 08:33:51;;;;;;;18.38;2.88;;;2.60;99.90;;;;;;4858946;29;20424;-85
2022/01/20 08:36:16;;;;;;;16.00;2.47;;;2.60;99.90;;;;;;4874673;29;20393;-85
2022/01/20 08:38:42;;;;;;;13.25;2.20;;;2.70;99.90;;;;;;4858918;29;20477;-87
2022/01/20 08:41:08;;;;;;;21.73;2.17;;;2.70;99.90;;;;;;4875336;29;20461;-86
2022/01/20 08:43:38;;;;;;;14.15;2.58;;;2.80;99.90;;;;;;4874993;29;20076;-86
2022/01/20 08:46:07;;;;;;;15.35;2.30;;;2.90;99.90;;;;;;4858503;29;20048;-85
2022/01/20 08:48:34;;;;;;;10.43;1.77;;;3.10;99.90;;;;;;4874546;29;20044;-85
2022/01/20 08:51:01;;;;;;;12.68;1.70;;;3.20;99.90;;;;;;4858616;29;20045;-85
2022/01/20 08:53:27;;;;;;;12.80;1.98;;;3.40;99.90;;;;;;4873714;29;20052;-85
2022/01/20 08:55:53;;;;;;;8.23;1.00;;;3.20;99.90;;;;;;4874868;29;20060;-85
2022/01/20 08:58:19;;;;;;;9.35;1.70;;;3.60;99.90;;;;;;4859513;29;20044;-84
2022/01/20 09:00:44;;;;;;;9.40;1.60;;;2.80;99.90;;;;;;4865473;29;20539;-84
2022/01/20 09:03:11;;;;;;;15.35;2.05;;;2.50;99.90;;;;;;4875463;29;20226;-86
2022/01/20 09:05:37;;;;;;;10.50;1.48;;;2.40;99.90;;;;;;4875291;29;20479;-86
2022/01/20 09:08:04;;;;;;;12.93;1.33;;;2.30;99.90;;;;;;4875200;29;20411;-85
2022/01/20 09:10:37;;;;;;;6.13;1.15;;;2.30;99.90;;;;;;4860033;29;20131;-85
2022/01/20 09:15:48;;;;;;;10.35;1.52;;;2.30;99.90;;;;;;4872428;29;20136;-86
2022/01/20 09:18:16;;;;;;;14.27;1.90;;;2.80;99.90;;;;;;4841502;29;20136;-86
2022/01/20 09:20:41;;;;;;;11.68;2.13;;;2.70;99.90;;;;;;4840407;29;20140;-86
2022/01/20 09:23:08;;;;;;;18.45;2.95;;;2.80;99.90;;;;;;4856868;29;20132;-85
2022/01/20 09:25:34;;;;;;;16.38;2.83;;;2.70;99.90;;;;;;4841115;29;20052;-86
2022/01/20 09:28:00;;;;;;;18.08;3.17;;;2.90;99.90;;;;;;4840591;29;20085;-86
2022/01/20 09:30:28;;;;;;;25.83;3.53;;;2.50;99.90;;;;;;4843931;29;20712;-86
2022/01/20 09:33:12;;;;;;;23.20;2.63;;;2.40;99.90;;;;;;4859021;29;20442;-86
2022/01/20 09:35:40;;;;;;;16.15;3.25;;;2.40;99.90;;;;;;4858575;29;20045;-85
2022/01/20 09:38:06;;;;;;;14.75;2.30;;;2.40;99.90;;;;;;4859523;29;20105;-85
2022/01/20 09:40:33;;;;;;;13.30;1.98;;;2.40;99.90;;;;;;4858529;29;20061;-85
2022/01/20 09:43:00;;;;;;;24.00;3.40;;;2.80;99.90;;;;;;4843750;29;20091;-84
2022/01/20 09:45:27;;;;;;;18.83;2.40;;;2.70;99.90;;;;;;4858696;29;20045;-85
2022/01/20 09:47:53;;;;;;;19.27;3.05;;;3.40;99.90;;;;;;4858017;29;20057;-85
2022/01/20 09:50:21;;;;;;;15.48;2.30;;;3.00;99.90;;;;;;4858116;29;20124;-85
2022/01/20 09:52:49;;;;;;;17.25;2.20;;;3.50;99.90;;;;;;4843878;29;20064;-85
2022/01/20 09:55:19;;;;;;;21.10;3.13;;;3.30;99.90;;;;;;4858073;29;20053;-86
2022/01/20 09:57:45;;;;;;;30.02;3.15;;;3.40;99.90;;;;;;4859707;29;20045;-90
2022/01/20 10:00:14;;;;;;;16.63;2.58;;;3.50;99.90;;;;;;4843970;29;20251;-87
2022/01/20 10:02:56;;;;;;;18.70;2.65;;;3.50;99.90;;;;;;4865544;29;20485;-90
2022/01/20 10:05:25;;;;;;;17.88;2.25;;;4.10;99.90;;;;;;4877881;29;20064;-87
2022/01/20 10:07:51;;;;;;;21.08;3.45;;;3.50;99.90;;;;;;4878354;29;20045;-88
2022/01/20 10:10:17;;;;;;;19.67;2.97;;;3.70;99.90;;;;;;4879509;29;20044;-89
2022/01/20 10:12:42;;;;;;;20.80;3.40;;;3.80;99.90;;;;;;4878403;29;20054;-89
2022/01/20 10:15:11;;;;;;;18.23;3.35;;;3.90;99.90;;;;;;4879289;29;20100;-89
2022/01/20 10:17:37;;;;;;;24.25;2.72;;;4.00;99.90;;;;;;4877603;29;20508;-88
2022/01/20 10:20:06;;;;;;;26.30;4.13;;;4.40;99.90;;;;;;4876993;29;20108;-89
2022/01/20 10:22:36;;;;;;;16.95;2.67;;;4.00;99.90;;;;;;4879061;29;20083;-88
2022/01/20 10:25:12;;;;;;;23.60;3.47;;;4.00;99.90;;;;;;4878708;29;20080;-88
2022/01/20 10:27:48;;;;;;;25.88;3.40;;;4.00;99.90;;;;;;4877305;29;20049;-88
2022/01/20 10:30:14;;;;;;;25.70;2.47;;;4.00;99.90;;;;;;4876940;29;20045;-89
2022/01/20 10:32:42;;;;;;;11.77;2.17;;;4.00;99.90;;;;;;4876412;29;20045;-87
2022/01/20 10:35:08;;;;;;;14.10;2.50;;;3.80;99.90;;;;;;4877231;29;20401;-87
2022/01/20 10:37:34;;;;;;;17.23;2.55;;;3.80;99.90;;;;;;4875888;29;20049;-85
2022/01/20 10:40:08;;;;;;;13.75;2.08;;;3.80;99.90;;;;;;4875626;29;20048;-85
2022/01/20 10:42:38;;;;;;;20.00;2.97;;;3.90;99.90;;;;;;4870534;29;20045;-85
2022/01/20 10:45:04;;;;;;;16.80;2.92;;;4.30;99.90;;;;;;4857997;29;20049;-87
2022/01/20 10:47:33;;;;;;;27.70;3.08;;;3.90;99.90;;;;;;4857124;29;20056;-87
2022/01/20 10:50:11;;;;;;;16.65;2.72;;;3.90;99.90;;;;;;4858556;29;20049;-89
2022/01/20 10:52:38;;;;;;;14.60;2.75;;;4.00;99.90;;;;;;4858397;29;20076;-88
2022/01/20 10:55:07;;;;;;;18.67;3.33;;;3.90;99.90;;;;;;4858917;29;20401;-87
2022/01/20 10:57:34;;;;;;;22.05;3.10;;;3.90;99.90;;;;;;4858016;29;20049;-87
2022/01/20 11:00:07;;;;;;;17.70;2.97;;;3.80;99.90;;;;;;4857440;29;20064;-88
2022/01/20 11:02:33;;;;;;;15.30;2.40;;;3.80;99.90;;;;;;4857806;29;20402;-88
2022/01/20 11:04:59;;;;;;;14.02;2.65;;;3.80;99.90;;;;;;4857440;29;20044;-88
2022/01/20 11:07:27;;;;;;;14.23;1.88;;;3.80;99.90;;;;;;4859508;29;20144;-88
2022/01/20 11:10:05;;;;;;;18.20;2.50;;;3.90;99.90;;;;;;4845124;29;20056;-86
2022/01/20 11:12:31;;;;;;;17.35;3.38;;;4.00;99.90;;;;;;4856656;29;20592;-86
2022/01/20 11:15:00;;;;;;;21.58;2.75;;;4.10;99.90;;;;;;4857146;29;20525;-85
2022/01/20 11:17:29;;;;;;;19.13;2.95;;;4.20;99.90;;;;;;4856946;29;20038;-85
2022/01/20 11:20:03;;;;;;;26.40;3.15;;;4.40;99.90;;;;;;4855722;29;20451;-85
2022/01/20 11:22:29;;;;;;;10.93;2.20;;;4.30;99.90;;;;;;4857103;29;20442;-86
2022/01/20 11:24:58;;;;;;;20.38;3.25;;;4.20;99.90;;;;;;4857290;29;20052;-86
2022/01/20 11:27:36;;;;;;;19.88;3.15;;;4.20;99.90;;;;;;4856671;29;20442;-86
2022/01/20 11:30:13;;;;;;;17.48;2.65;;;4.20;99.90;;;;;;4857572;29;20403;-86
2022/01/20 11:32:39;;;;;;;16.80;3.20;;;4.30;99.90;;;;;;4857177;29;20053;-86
2022/01/20 11:35:09;;;;;;;16.65;2.55;;;4.30;99.90;;;;;;4856441;29;20053;-85
2022/01/20 11:37:38;;;;;;;20.70;3.22;;;4.40;99.90;;;;;;4856758;29;20339;-85
2022/01/20 11:40:17;;;;;;;21.45;2.67;;;4.60;99.90;;;;;;4857653;29;20049;-86
2022/01/20 11:42:57;;;;;;;15.10;3.10;;;4.60;99.90;;;;;;4857082;29;20059;-86
2022/01/20 11:45:28;;;;;;;26.65;3.90;;;4.60;99.90;;;;;;4857145;29;20159;-86
2022/01/20 11:47:54;;;;;;;26.35;3.97;;;4.60;99.90;;;;;;4855846;29;20132;-85
2022/01/20 11:50:21;;;;;;;17.73;3.08;;;4.50;99.90;;;;;;4873947;29;20572;-87
2022/01/20 11:52:47;;;;;;;18.55;2.97;;;4.40;99.90;;;;;;4859650;29;20155;-86
2022/01/20 11:55:16;;;;;;;20.98;3.00;;;4.40;99.90;;;;;;4859890;29;20556;-86
2022/01/20 11:57:43;;;;;;;22.45;4.55;;;4.40;99.90;;;;;;4875294;29;20052;-86
2022/01/20 12:00:21;;;;;;;19.90;3.55;;;4.60;99.90;;;;;;4875047;29;20064;-87
2022/01/20 12:02:48;;;;;;;18.13;2.92;;;4.50;99.90;;;;;;4872563;29;20176;-87
2022/01/20 12:05:28;;;;;;;18.95;2.90;;;4.30;99.90;;;;;;4860884;29;20055;-88
2022/01/20 12:08:10;;;;;;;17.17;2.47;;;4.10;99.90;;;;;;4875012;29;20048;-86
2022/01/20 12:10:37;;;;;;;20.27;2.03;;;3.90;99.90;;;;;;4872468;29;20048;-86
2022/01/20 12:13:08;;;;;;;10.93;2.15;;;3.70;99.90;;;;;;4874613;29;20076;-87
2022/01/20 12:15:33;;;;;;;11.88;1.65;;;3.50;99.90;;;;;;4856918;29;20049;-87
2022/01/20 12:17:59;;;;;;;17.27;2.28;;;4.10;99.90;;;;;;4858554;29;20052;-86
2022/01/20 12:20:26;;;;;;;10.43;1.80;;;3.50;99.90;;;;;;4877188;29;20055;-87
2022/01/20 12:22:53;;;;;;;15.88;2.72;;;3.50;99.90;;;;;;4874724;29;20041;-86
2022/01/20 12:25:24;;;;;;;16.08;2.75;;;3.60;99.90;;;;;;4858763;29;20056;-86
2022/01/20 12:27:51;;;;;;;17.05;2.67;;;3.70;99.90;;;;;;4890324;29;20594;-86
2022/01/20 12:30:21;;;;;;;18.23;2.55;;;3.90;99.90;;;;;;4872330;29;20045;-88
2022/01/20 12:33:03;;;;;;;13.85;2.50;;;4.10;99.90;;;;;;4859009;29;20450;-87
2022/01/20 12:35:36;;;;;;;21.55;2.55;;;4.10;99.90;;;;;;4841261;29;20049;-87
2022/01/20 12:38:13;;;;;;;14.60;2.97;;;4.10;99.90;;;;;;4856125;29;20083;-87
2022/01/20 12:40:39;;;;;;;21.80;2.67;;;4.20;99.90;;;;;;4881768;29;20044;-85
2022/01/20 12:43:05;;;;;;;21.63;3.78;;;4.30;99.90;;;;;;4865908;29;20063;-86
2022/01/20 12:48:18;;;;;;;22.75;2.50;;;4.30;99.90;;;;;;4886932;29;20048;-86
2022/01/20 12:50:59;;;;;;;21.88;3.15;;;4.30;99.90;;;;;;4865730;29;20044;-87
2022/01/20 12:53:35;;;;;;;18.27;2.83;;;4.30;99.90;;;;;;4867805;29;20052;-85
2022/01/20 12:56:01;;;;;;;15.98;2.67;;;4.40;99.90;;;;;;4875079;29;20052;-85
2022/01/20 12:58:27;;;;;;;20.50;3.15;;;4.40;99.90;;;;;;4874194;29;20040;-84
2022/01/20 13:00:59;;;;;;;20.33;3.10;;;4.70;99.90;;;;;;4859444;29;20063;-85
2022/01/20 13:03:40;;;;;;;26.48;2.92;;;4.50;99.90;;;;;;4859236;29;20052;-85
2022/01/20 13:06:11;;;;;;;22.92;4.07;;;4.50;98.00;;;;;;4877586;29;20144;-86
2022/01/20 13:08:40;;;;;;;16.13;2.78;;;4.60;99.30;;;;;;4878163;29;20068;-88
2022/01/20 13:11:12;;;;;;;14.55;2.17;;;4.50;99.90;;;;;;4859316;29;20152;-91
2022/01/20 13:13:38;;;;;;;17.15;2.65;;;4.00;99.90;;;;;;4859324;29;20398;-87
2022/01/20 13:16:13;;;;;;;18.45;2.60;;;3.60;99.90;;;;;;4859268;29;20105;-87
2022/01/20 13:18:39;;;;;;;12.85;1.80;;;3.30;99.90;;;;;;4845100;29;20056;-87
2022/01/20 13:21:07;;;;;;;10.98;1.77;;;3.10;99.90;;;;;;4844496;29;20064;-89
2022/01/20 13:23:54;;;;;;;12.13;1.40;;;3.00;99.90;;;;;;4860218;29;20358;-88
2022/01/20 13:26:21;;;;;;;11.45;1.52;;;2.90;99.90;;;;;;4859709;29;20052;-88
2022/01/20 13:29:03;;;;;;;7.35;1.10;;;2.90;99.90;;;;;;4859851;29;20045;-88
2022/01/20 13:31:29;;;;;;;8.48;1.40;;;3.00;99.90;;;;;;4858905;29;20049;-88
2022/01/20 13:33:57;;;;;;;9.27;1.73;;;3.10;99.90;;;;;;4859212;29;20060;-87
2022/01/20 13:36:23;;;;;;;6.93;1.48;;;3.20;99.90;;;;;;4858424;29;20051;-87
2022/01/20 13:38:57;;;;;;;12.75;1.67;;;3.30;99.90;;;;;;4859336;29;20053;-86
2022/01/20 13:41:28;;;;;;;13.70;2.20;;;3.40;99.90;;;;;;4858250;29;20057;-87
2022/01/20 13:46:43;;;;;;;12.02;1.83;;;3.40;99.90;;;;;;4859119;29;20061;-87
2022/01/20 13:49:18;;;;;;;15.57;1.52;;;3.30;99.90;;;;;;4859327;29;20041;-86
2022/01/20 13:51:45;;;;;;;10.32;1.33;;;3.40;99.90;;;;;;4858829;29;20049;-87
2022/01/20 13:54:11;;;;;;;11.30;1.58;;;3.40;99.90;;;;;;4858831;29;20099;-86
2022/01/20 13:56:38;;;;;;;20.42;1.92;;;3.50;99.90;;;;;;4858758;29;20060;-86
2022/01/20 13:59:09;;;;;;;11.80;1.75;;;3.60;99.90;;;;;;4843615;29;20051;-86
2022/01/20 14:01:35;;;;;;;13.93;2.53;;;3.70;99.90;;;;;;4857220;29;20064;-86